sensor_id;sensor_type;location;lat;lon;timestamp;temperature;humidity
490;DHT22;231;48.120;11.576;2023-06-14T00:01:58;11.90;15.30
490;DHT22;231;48.120;11.576;2023-06-14T00:04:25;11.80;15.70
490;DHT22;231;48.120;11.576;2023-06-14T00:06:53;11.70;15.90
490;DHT22;231;48.120;11.576;2023-06-14T00:09:22;11.70;16.90
490;DHT22;231;48.120;11.576;2023-06-14T00:11:50;11.60;17.20
490;DHT22;231;48.120;11.576;2023-06-14T00:14:17;11.60;17.50
490;DHT22;231;48.120;11.576;2023-06-14T00:16:44;11.50;17.90
490;DHT22;231;48.120;11.576;2023-06-14T00:19:11;11.50;18.10
490;DHT22;231;48.120;11.576;2023-06-14T00:21:38;11.40;18.20
490;DHT22;231;48.120;11.576;2023-06-14T00:24:05;11.40;18.80
490;DHT22;231;48.120;11.576;2023-06-14T00:26:32;11.30;19.00
490;DHT22;231;48.120;11.576;2023-06-14T00:29:01;11.30;19.70
490;DHT22;231;48.120;11.576;2023-06-14T00:31:28;11.30;19.90
490;DHT22;231;48.120;11.576;2023-06-14T00:33:55;11.20;20.20
490;DHT22;231;48.120;11.576;2023-06-14T00:36:22;11.20;20.40
490;DHT22;231;48.120;11.576;2023-06-14T00:38:49;11.20;21.00
490;DHT22;231;48.120;11.576;2023-06-14T00:41:15;11.20;21.30
490;DHT22;231;48.120;11.576;2023-06-14T00:43:42;11.10;21.40
490;DHT22;231;48.120;11.576;2023-06-14T00:46:11;11.10;22.10
490;DHT22;231;48.120;11.576;2023-06-14T00:48:39;11.10;22.50
490;DHT22;231;48.120;11.576;2023-06-14T00:51:06;11.10;22.70
490;DHT22;231;48.120;11.576;2023-06-14T00:53:33;11.10;23.00
490;DHT22;231;48.120;11.576;2023-06-14T00:56:01;11.00;23.10
490;DHT22;231;48.120;11.576;2023-06-14T00:58:28;11.00;22.90
490;DHT22;231;48.120;11.576;2023-06-14T01:00:56;10.90;22.50
490;DHT22;231;48.120;11.576;2023-06-14T01:03:25;10.90;22.60
490;DHT22;231;48.120;11.576;2023-06-14T01:06:02;10.80;22.70
490;DHT22;231;48.120;11.576;2023-06-14T01:08:41;10.80;22.90
490;DHT22;231;48.120;11.576;2023-06-14T01:11:14;10.80;21.20
490;DHT22;231;48.120;11.576;2023-06-14T01:13:45;10.70;21.80
490;DHT22;231;48.120;11.576;2023-06-14T01:16:14;10.70;22.30
490;DHT22;231;48.120;11.576;2023-06-14T01:18:44;10.70;22.80
490;DHT22;231;48.120;11.576;2023-06-14T01:21:20;10.70;23.00
490;DHT22;231;48.120;11.576;2023-06-14T01:23:49;10.70;23.00
490;DHT22;231;48.120;11.576;2023-06-14T01:26:19;10.70;23.20
490;DHT22;231;48.120;11.576;2023-06-14T01:28:47;10.60;22.90
490;DHT22;231;48.120;11.576;2023-06-14T01:31:17;10.60;22.90
490;DHT22;231;48.120;11.576;2023-06-14T01:33:45;10.60;22.70
490;DHT22;231;48.120;11.576;2023-06-14T01:36:13;10.60;22.10
490;DHT22;231;48.120;11.576;2023-06-14T01:38:42;10.60;22.00
490;DHT22;231;48.120;11.576;2023-06-14T01:41:12;10.60;22.70
490;DHT22;231;48.120;11.576;2023-06-14T01:43:41;10.50;23.50
490;DHT22;231;48.120;11.576;2023-06-14T01:46:09;10.50;24.20
490;DHT22;231;48.120;11.576;2023-06-14T01:48:37;10.50;24.50
490;DHT22;231;48.120;11.576;2023-06-14T01:51:04;10.50;25.00
490;DHT22;231;48.120;11.576;2023-06-14T01:53:31;10.50;26.00
490;DHT22;231;48.120;11.576;2023-06-14T01:55:58;10.50;26.10
490;DHT22;231;48.120;11.576;2023-06-14T01:58:27;10.40;27.20
490;DHT22;231;48.120;11.576;2023-06-14T02:00:54;10.40;27.20
490;DHT22;231;48.120;11.576;2023-06-14T02:03:22;10.40;27.90
490;DHT22;231;48.120;11.576;2023-06-14T02:05:50;10.30;28.20
490;DHT22;231;48.120;11.576;2023-06-14T02:08:17;10.30;40.00
490;DHT22;231;48.120;11.576;2023-06-14T02:10:44;10.10;34.00
490;DHT22;231;48.120;11.576;2023-06-14T02:13:11;10.20;29.20
490;DHT22;231;48.120;11.576;2023-06-14T02:15:40;10.10;29.20
490;DHT22;231;48.120;11.576;2023-06-14T02:18:09;10.10;29.30
490;DHT22;231;48.120;11.576;2023-06-14T02:20:37;10.10;29.70
490;DHT22;231;48.120;11.576;2023-06-14T02:23:03;10.00;29.70
490;DHT22;231;48.120;11.576;2023-06-14T02:25:31;10.00;29.90
490;DHT22;231;48.120;11.576;2023-06-14T02:27:58;10.00;30.20
490;DHT22;231;48.120;11.576;2023-06-14T02:30:28;10.00;30.40
490;DHT22;231;48.120;11.576;2023-06-14T02:32:56;10.00;30.80
490;DHT22;231;48.120;11.576;2023-06-14T02:35:24;9.90;32.00
490;DHT22;231;48.120;11.576;2023-06-14T02:37:52;9.90;32.00
490;DHT22;231;48.120;11.576;2023-06-14T02:40:19;9.90;31.80
490;DHT22;231;48.120;11.576;2023-06-14T02:42:46;9.90;31.60
490;DHT22;231;48.120;11.576;2023-06-14T02:45:13;9.70;42.40
490;DHT22;231;48.120;11.576;2023-06-14T02:47:40;9.80;38.10
490;DHT22;231;48.120;11.576;2023-06-14T02:50:09;9.80;37.80
490;DHT22;231;48.120;11.576;2023-06-14T02:52:36;9.70;38.00
490;DHT22;231;48.120;11.576;2023-06-14T02:55:04;10.00;37.20
490;DHT22;231;48.120;11.576;2023-06-14T02:57:31;9.70;37.40
490;DHT22;231;48.120;11.576;2023-06-14T02:59:58;9.70;34.50
490;DHT22;231;48.120;11.576;2023-06-14T03:02:26;9.70;34.10
490;DHT22;231;48.120;11.576;2023-06-14T03:04:53;9.70;33.90
490;DHT22;231;48.120;11.576;2023-06-14T03:07:22;9.70;34.20
490;DHT22;231;48.120;11.576;2023-06-14T03:09:51;9.70;35.00
490;DHT22;231;48.120;11.576;2023-06-14T03:12:19;9.70;35.10
490;DHT22;231;48.120;11.576;2023-06-14T03:14:46;9.70;35.40
490;DHT22;231;48.120;11.576;2023-06-14T03:17:13;9.60;35.30
490;DHT22;231;48.120;11.576;2023-06-14T03:19:42;9.60;35.70
490;DHT22;231;48.120;11.576;2023-06-14T03:22:09;9.60;35.90
490;DHT22;231;48.120;11.576;2023-06-14T03:24:38;9.70;36.20
490;DHT22;231;48.120;11.576;2023-06-14T03:27:06;9.60;36.40
490;DHT22;231;48.120;11.576;2023-06-14T03:29:35;9.70;36.60
490;DHT22;231;48.120;11.576;2023-06-14T03:32:03;9.70;36.90
490;DHT22;231;48.120;11.576;2023-06-14T03:34:30;9.70;37.00
490;DHT22;231;48.120;11.576;2023-06-14T03:36:58;9.70;37.00
490;DHT22;231;48.120;11.576;2023-06-14T03:39:25;9.80;36.80
490;DHT22;231;48.120;11.576;2023-06-14T03:41:53;9.80;36.40
490;DHT22;231;48.120;11.576;2023-06-14T03:44:21;9.70;35.70
490;DHT22;231;48.120;11.576;2023-06-14T03:46:49;9.80;32.80
490;DHT22;231;48.120;11.576;2023-06-14T03:49:17;9.80;30.10
490;DHT22;231;48.120;11.576;2023-06-14T03:51:44;9.80;29.00
490;DHT22;231;48.120;11.576;2023-06-14T03:54:11;9.90;28.80
490;DHT22;231;48.120;11.576;2023-06-14T03:56:38;9.90;29.20
490;DHT22;231;48.120;11.576;2023-06-14T03:59:06;10.10;28.70
490;DHT22;231;48.120;11.576;2023-06-14T04:01:34;10.10;28.30
490;DHT22;231;48.120;11.576;2023-06-14T04:04:01;10.20;28.00
490;DHT22;231;48.120;11.576;2023-06-14T04:06:28;10.30;27.30
490;DHT22;231;48.120;11.576;2023-06-14T04:09:01;10.40;26.90
490;DHT22;231;48.120;11.576;2023-06-14T04:11:29;10.50;26.50
490;DHT22;231;48.120;11.576;2023-06-14T04:13:56;10.60;26.20
490;DHT22;231;48.120;11.576;2023-06-14T04:16:25;10.60;25.70
490;DHT22;231;48.120;11.576;2023-06-14T04:18:52;10.70;25.10
490;DHT22;231;48.120;11.576;2023-06-14T04:21:22;10.80;24.40
490;DHT22;231;48.120;11.576;2023-06-14T04:23:52;10.80;23.20
490;DHT22;231;48.120;11.576;2023-06-14T04:26:21;11.00;21.90
490;DHT22;231;48.120;11.576;2023-06-14T04:28:51;11.10;21.40
490;DHT22;231;48.120;11.576;2023-06-14T04:31:18;11.20;20.30
490;DHT22;231;48.120;11.576;2023-06-14T04:33:51;11.20;19.10
490;DHT22;231;48.120;11.576;2023-06-14T04:36:19;11.30;18.40
490;DHT22;231;48.120;11.576;2023-06-14T04:38:46;11.40;17.50
490;DHT22;231;48.120;11.576;2023-06-14T04:41:15;11.50;17.00
490;DHT22;231;48.120;11.576;2023-06-14T04:43:43;11.50;16.40
490;DHT22;231;48.120;11.576;2023-06-14T04:46:14;11.60;15.90
490;DHT22;231;48.120;11.576;2023-06-14T04:48:41;11.70;15.00
490;DHT22;231;48.120;11.576;2023-06-14T04:51:10;11.80;14.40
490;DHT22;231;48.120;11.576;2023-06-14T04:53:36;12.00;13.60
490;DHT22;231;48.120;11.576;2023-06-14T04:56:04;12.10;13.30
490;DHT22;231;48.120;11.576;2023-06-14T04:58:31;12.20;13.10
490;DHT22;231;48.120;11.576;2023-06-14T05:00:58;12.40;12.70
490;DHT22;231;48.120;11.576;2023-06-14T05:03:25;12.50;12.70
490;DHT22;231;48.120;11.576;2023-06-14T05:05:53;12.70;12.10
490;DHT22;231;48.120;11.576;2023-06-14T05:11:30;13.10;10.60
490;DHT22;231;48.120;11.576;2023-06-14T05:13:57;13.40;9.70
490;DHT22;231;48.120;11.576;2023-06-14T05:16:24;13.60;9.00
490;DHT22;231;48.120;11.576;2023-06-14T05:18:52;13.80;9.00
490;DHT22;231;48.120;11.576;2023-06-14T05:21:19;14.40;8.60
490;DHT22;231;48.120;11.576;2023-06-14T05:23:47;15.50;7.50
490;DHT22;231;48.120;11.576;2023-06-14T05:26:16;17.10;4.90
490;DHT22;231;48.120;11.576;2023-06-14T05:29:16;18.80;1.40
490;DHT22;231;48.120;11.576;2023-06-14T05:32:00;20.90;1.00
490;DHT22;231;48.120;11.576;2023-06-14T05:34:32;22.10;1.00
490;DHT22;231;48.120;11.576;2023-06-14T05:39:58;23.70;1.00
490;DHT22;231;48.120;11.576;2023-06-14T05:42:25;24.40;1.00
490;DHT22;231;48.120;11.576;2023-06-14T05:44:52;25.30;1.00
490;DHT22;231;48.120;11.576;2023-06-14T05:47:30;26.20;1.00
490;DHT22;231;48.120;11.576;2023-06-14T05:49:56;27.20;1.00
490;DHT22;231;48.120;11.576;2023-06-14T05:52:24;28.30;1.00
490;DHT22;231;48.120;11.576;2023-06-14T05:54:50;29.60;1.00
490;DHT22;231;48.120;11.576;2023-06-14T05:57:19;30.50;1.00
490;DHT22;231;48.120;11.576;2023-06-14T05:59:45;31.50;1.00
490;DHT22;231;48.120;11.576;2023-06-14T06:02:12;32.10;1.00
490;DHT22;231;48.120;11.576;2023-06-14T06:04:39;32.40;1.00
490;DHT22;231;48.120;11.576;2023-06-14T06:07:06;32.40;1.00
490;DHT22;231;48.120;11.576;2023-06-14T06:09:33;32.50;1.00
490;DHT22;231;48.120;11.576;2023-06-14T06:12:00;32.90;1.00
490;DHT22;231;48.120;11.576;2023-06-14T06:14:28;33.30;1.00
490;DHT22;231;48.120;11.576;2023-06-14T06:16:55;33.70;1.00
490;DHT22;231;48.120;11.576;2023-06-14T06:19:22;34.40;1.00
490;DHT22;231;48.120;11.576;2023-06-14T06:21:49;34.20;1.00
490;DHT22;231;48.120;11.576;2023-06-14T06:24:16;33.70;1.00
490;DHT22;231;48.120;11.576;2023-06-14T06:26:43;33.90;1.00
490;DHT22;231;48.120;11.576;2023-06-14T06:29:10;34.30;1.00
490;DHT22;231;48.120;11.576;2023-06-14T06:31:38;34.90;1.00
490;DHT22;231;48.120;11.576;2023-06-14T06:34:05;35.40;1.00
490;DHT22;231;48.120;11.576;2023-06-14T06:36:32;35.70;1.00
490;DHT22;231;48.120;11.576;2023-06-14T06:38:59;35.70;1.00
490;DHT22;231;48.120;11.576;2023-06-14T06:41:26;36.00;1.00
490;DHT22;231;48.120;11.576;2023-06-14T06:43:53;37.00;1.00
490;DHT22;231;48.120;11.576;2023-06-14T06:46:20;38.20;1.00
490;DHT22;231;48.120;11.576;2023-06-14T06:48:48;38.90;1.00
490;DHT22;231;48.120;11.576;2023-06-14T06:51:15;39.00;1.00
490;DHT22;231;48.120;11.576;2023-06-14T06:53:42;39.20;1.00
490;DHT22;231;48.120;11.576;2023-06-14T06:56:10;39.00;1.00
490;DHT22;231;48.120;11.576;2023-06-14T06:58:37;39.20;1.00
490;DHT22;231;48.120;11.576;2023-06-14T07:01:04;39.50;1.00
490;DHT22;231;48.120;11.576;2023-06-14T07:03:30;39.70;1.00
490;DHT22;231;48.120;11.576;2023-06-14T07:05:59;40.00;1.00
490;DHT22;231;48.120;11.576;2023-06-14T07:08:25;40.40;1.00
490;DHT22;231;48.120;11.576;2023-06-14T07:10:53;40.80;1.00
490;DHT22;231;48.120;11.576;2023-06-14T07:13:19;41.60;1.00
490;DHT22;231;48.120;11.576;2023-06-14T07:15:47;42.00;1.00
490;DHT22;231;48.120;11.576;2023-06-14T07:18:14;42.60;1.00
490;DHT22;231;48.120;11.576;2023-06-14T07:20:41;43.20;1.00
490;DHT22;231;48.120;11.576;2023-06-14T07:23:09;44.00;1.00
490;DHT22;231;48.120;11.576;2023-06-14T07:25:36;45.00;1.00
490;DHT22;231;48.120;11.576;2023-06-14T07:28:03;45.80;1.00
490;DHT22;231;48.120;11.576;2023-06-14T07:30:31;46.20;1.00
490;DHT22;231;48.120;11.576;2023-06-14T07:32:57;46.00;1.00
490;DHT22;231;48.120;11.576;2023-06-14T07:35:24;45.90;1.00
490;DHT22;231;48.120;11.576;2023-06-14T07:37:51;46.60;1.00
490;DHT22;231;48.120;11.576;2023-06-14T07:40:19;46.20;1.00
490;DHT22;231;48.120;11.576;2023-06-14T07:42:46;45.60;1.00
490;DHT22;231;48.120;11.576;2023-06-14T07:45:15;45.70;1.00
490;DHT22;231;48.120;11.576;2023-06-14T07:47:42;44.70;1.00
490;DHT22;231;48.120;11.576;2023-06-14T07:50:10;43.40;1.00
490;DHT22;231;48.120;11.576;2023-06-14T07:52:37;43.10;1.00
490;DHT22;231;48.120;11.576;2023-06-14T07:55:05;43.00;1.00
490;DHT22;231;48.120;11.576;2023-06-14T07:57:33;43.40;1.00
490;DHT22;231;48.120;11.576;2023-06-14T08:00:00;44.10;1.00
490;DHT22;231;48.120;11.576;2023-06-14T08:02:27;44.70;1.00
490;DHT22;231;48.120;11.576;2023-06-14T08:04:54;44.40;1.00
490;DHT22;231;48.120;11.576;2023-06-14T08:07:21;44.00;1.00
490;DHT22;231;48.120;11.576;2023-06-14T08:09:48;44.00;1.00
490;DHT22;231;48.120;11.576;2023-06-14T08:12:15;43.70;1.00
490;DHT22;231;48.120;11.576;2023-06-14T08:14:43;43.50;1.00
490;DHT22;231;48.120;11.576;2023-06-14T08:17:10;43.30;1.00
490;DHT22;231;48.120;11.576;2023-06-14T08:19:37;42.80;1.00
490;DHT22;231;48.120;11.576;2023-06-14T08:22:04;42.90;1.00
490;DHT22;231;48.120;11.576;2023-06-14T08:24:31;43.20;1.00
490;DHT22;231;48.120;11.576;2023-06-14T08:26:58;43.40;1.00
490;DHT22;231;48.120;11.576;2023-06-14T08:29:26;44.50;1.00
490;DHT22;231;48.120;11.576;2023-06-14T08:31:56;45.70;1.00
490;DHT22;231;48.120;11.576;2023-06-14T08:34:23;45.90;1.00
490;DHT22;231;48.120;11.576;2023-06-14T08:36:50;46.20;1.00
490;DHT22;231;48.120;11.576;2023-06-14T08:39:17;46.80;1.00
490;DHT22;231;48.120;11.576;2023-06-14T08:41:46;47.10;1.00
490;DHT22;231;48.120;11.576;2023-06-14T08:44:14;47.30;1.00
490;DHT22;231;48.120;11.576;2023-06-14T08:46:42;46.10;1.00
490;DHT22;231;48.120;11.576;2023-06-14T08:49:12;44.70;1.00
490;DHT22;231;48.120;11.576;2023-06-14T08:51:39;43.60;1.00
490;DHT22;231;48.120;11.576;2023-06-14T08:54:07;43.80;1.00
490;DHT22;231;48.120;11.576;2023-06-14T08:56:38;44.90;1.00
490;DHT22;231;48.120;11.576;2023-06-14T08:59:08;45.40;1.00
490;DHT22;231;48.120;11.576;2023-06-14T09:01:36;45.50;1.00
490;DHT22;231;48.120;11.576;2023-06-14T09:04:04;45.60;1.00
490;DHT22;231;48.120;11.576;2023-06-14T09:06:33;46.00;1.00
490;DHT22;231;48.120;11.576;2023-06-14T09:08:59;46.30;1.00
490;DHT22;231;48.120;11.576;2023-06-14T09:11:27;45.90;1.00
490;DHT22;231;48.120;11.576;2023-06-14T09:13:54;45.70;1.00
490;DHT22;231;48.120;11.576;2023-06-14T09:16:21;45.90;1.00
490;DHT22;231;48.120;11.576;2023-06-14T09:18:48;46.30;1.00
490;DHT22;231;48.120;11.576;2023-06-14T09:21:16;46.30;1.00
490;DHT22;231;48.120;11.576;2023-06-14T09:23:45;46.60;1.00
490;DHT22;231;48.120;11.576;2023-06-14T09:26:14;47.10;1.00
490;DHT22;231;48.120;11.576;2023-06-14T09:28:42;47.80;1.00
490;DHT22;231;48.120;11.576;2023-06-14T09:31:10;48.40;1.00
490;DHT22;231;48.120;11.576;2023-06-14T09:33:37;49.60;1.00
490;DHT22;231;48.120;11.576;2023-06-14T09:36:04;50.10;1.00
490;DHT22;231;48.120;11.576;2023-06-14T09:38:34;49.40;1.00
490;DHT22;231;48.120;11.576;2023-06-14T09:41:03;49.10;1.00
490;DHT22;231;48.120;11.576;2023-06-14T09:43:30;48.40;1.00
490;DHT22;231;48.120;11.576;2023-06-14T09:46:00;48.10;1.00
490;DHT22;231;48.120;11.576;2023-06-14T09:48:27;47.50;1.00
490;DHT22;231;48.120;11.576;2023-06-14T09:50:55;47.50;1.00
490;DHT22;231;48.120;11.576;2023-06-14T09:53:26;47.80;1.00
490;DHT22;231;48.120;11.576;2023-06-14T09:55:55;48.50;1.00
490;DHT22;231;48.120;11.576;2023-06-14T09:58:26;48.70;1.00
490;DHT22;231;48.120;11.576;2023-06-14T10:00:55;48.70;1.00
490;DHT22;231;48.120;11.576;2023-06-14T10:03:27;48.90;1.00
490;DHT22;231;48.120;11.576;2023-06-14T10:05:56;49.10;1.00
490;DHT22;231;48.120;11.576;2023-06-14T10:08:28;47.80;1.00
490;DHT22;231;48.120;11.576;2023-06-14T10:10:58;45.30;1.00
490;DHT22;231;48.120;11.576;2023-06-14T10:13:29;43.80;1.00
490;DHT22;231;48.120;11.576;2023-06-14T10:16:09;43.50;1.00
490;DHT22;231;48.120;11.576;2023-06-14T10:18:43;43.30;1.00
490;DHT22;231;48.120;11.576;2023-06-14T10:21:18;42.90;1.00
490;DHT22;231;48.120;11.576;2023-06-14T10:23:50;43.00;1.00
490;DHT22;231;48.120;11.576;2023-06-14T10:26:23;43.20;1.00
490;DHT22;231;48.120;11.576;2023-06-14T10:28:59;43.00;1.00
490;DHT22;231;48.120;11.576;2023-06-14T10:31:44;43.30;1.00
490;DHT22;231;48.120;11.576;2023-06-14T10:34:12;44.90;1.00
490;DHT22;231;48.120;11.576;2023-06-14T10:36:42;45.30;1.00
490;DHT22;231;48.120;11.576;2023-06-14T10:39:14;43.90;1.00
490;DHT22;231;48.120;11.576;2023-06-14T10:41:51;42.90;1.00
490;DHT22;231;48.120;11.576;2023-06-14T10:44:42;42.10;1.00
490;DHT22;231;48.120;11.576;2023-06-14T10:47:19;41.20;1.00
490;DHT22;231;48.120;11.576;2023-06-14T10:49:50;40.60;1.00
490;DHT22;231;48.120;11.576;2023-06-14T10:52:22;40.90;1.00
490;DHT22;231;48.120;11.576;2023-06-14T10:55:03;41.40;1.00
490;DHT22;231;48.120;11.576;2023-06-14T10:57:32;40.50;1.00
490;DHT22;231;48.120;11.576;2023-06-14T11:00:01;37.80;1.00
490;DHT22;231;48.120;11.576;2023-06-14T11:02:59;34.90;1.00
490;DHT22;231;48.120;11.576;2023-06-14T11:05:43;32.90;1.00
490;DHT22;231;48.120;11.576;2023-06-14T11:52:38;36.10;1.00
490;DHT22;231;48.120;11.576;2023-06-14T11:55:06;36.80;1.00
490;DHT22;231;48.120;11.576;2023-06-14T11:57:34;37.90;1.00
490;DHT22;231;48.120;11.576;2023-06-14T12:00:07;38.90;1.00
490;DHT22;231;48.120;11.576;2023-06-14T12:02:37;39.00;1.00
490;DHT22;231;48.120;11.576;2023-06-14T12:05:06;39.40;1.00
490;DHT22;231;48.120;11.576;2023-06-14T12:07:35;39.00;1.00
490;DHT22;231;48.120;11.576;2023-06-14T12:10:08;38.40;1.00
490;DHT22;231;48.120;11.576;2023-06-14T12:12:37;38.20;1.00
490;DHT22;231;48.120;11.576;2023-06-14T12:15:04;38.40;1.00
490;DHT22;231;48.120;11.576;2023-06-14T12:17:35;38.10;1.00
490;DHT22;231;48.120;11.576;2023-06-14T12:20:08;38.00;1.00
490;DHT22;231;48.120;11.576;2023-06-14T12:22:36;37.80;1.00
490;DHT22;231;48.120;11.576;2023-06-14T12:25:04;37.30;1.00
490;DHT22;231;48.120;11.576;2023-06-14T12:27:32;37.30;1.00
490;DHT22;231;48.120;11.576;2023-06-14T12:30:00;37.70;1.00
490;DHT22;231;48.120;11.576;2023-06-14T12:32:28;38.20;1.00
490;DHT22;231;48.120;11.576;2023-06-14T12:34:55;38.80;1.00
490;DHT22;231;48.120;11.576;2023-06-14T12:37:22;38.80;1.00
490;DHT22;231;48.120;11.576;2023-06-14T12:39:49;37.80;1.00
490;DHT22;231;48.120;11.576;2023-06-14T12:42:17;36.40;1.00
490;DHT22;231;48.120;11.576;2023-06-14T12:44:45;34.70;1.00
490;DHT22;231;48.120;11.576;2023-06-14T12:47:12;32.70;1.00
490;DHT22;231;48.120;11.576;2023-06-14T12:49:41;31.10;1.00
490;DHT22;231;48.120;11.576;2023-06-14T12:52:08;29.70;1.00
490;DHT22;231;48.120;11.576;2023-06-14T12:54:35;28.70;1.00
490;DHT22;231;48.120;11.576;2023-06-14T12:57:05;28.10;1.00
490;DHT22;231;48.120;11.576;2023-06-14T12:59:32;27.30;1.00
490;DHT22;231;48.120;11.576;2023-06-14T13:02:10;26.60;1.00
490;DHT22;231;48.120;11.576;2023-06-14T13:04:37;26.10;1.00
490;DHT22;231;48.120;11.576;2023-06-14T13:07:05;25.80;1.00
490;DHT22;231;48.120;11.576;2023-06-14T13:09:32;25.60;1.00
490;DHT22;231;48.120;11.576;2023-06-14T13:11:59;25.50;1.00
490;DHT22;231;48.120;11.576;2023-06-14T13:14:25;25.40;1.00
490;DHT22;231;48.120;11.576;2023-06-14T13:16:52;25.50;1.00
490;DHT22;231;48.120;11.576;2023-06-14T13:19:22;25.40;1.00
490;DHT22;231;48.120;11.576;2023-06-14T13:21:49;25.20;1.00
490;DHT22;231;48.120;11.576;2023-06-14T13:24:16;25.10;1.00
490;DHT22;231;48.120;11.576;2023-06-14T13:26:43;25.00;1.00
490;DHT22;231;48.120;11.576;2023-06-14T13:29:09;25.00;1.00
490;DHT22;231;48.120;11.576;2023-06-14T13:31:36;24.90;1.00
490;DHT22;231;48.120;11.576;2023-06-14T13:34:03;24.80;1.00
490;DHT22;231;48.120;11.576;2023-06-14T13:36:32;24.90;1.00
490;DHT22;231;48.120;11.576;2023-06-14T13:38:59;25.00;1.00
490;DHT22;231;48.120;11.576;2023-06-14T13:41:28;25.00;1.00
490;DHT22;231;48.120;11.576;2023-06-14T13:43:57;24.90;1.00
490;DHT22;231;48.120;11.576;2023-06-14T13:46:25;24.80;1.00
490;DHT22;231;48.120;11.576;2023-06-14T13:48:52;24.70;1.00
490;DHT22;231;48.120;11.576;2023-06-14T13:51:19;24.70;1.00
490;DHT22;231;48.120;11.576;2023-06-14T13:53:48;24.60;1.00
490;DHT22;231;48.120;11.576;2023-06-14T13:56:16;24.40;1.00
490;DHT22;231;48.120;11.576;2023-06-14T13:58:43;24.30;1.00
490;DHT22;231;48.120;11.576;2023-06-14T14:01:11;24.00;1.00
490;DHT22;231;48.120;11.576;2023-06-14T14:07:00;23.70;1.00
490;DHT22;231;48.120;11.576;2023-06-14T14:09:28;23.70;1.00
490;DHT22;231;48.120;11.576;2023-06-14T14:11:55;23.90;1.00
490;DHT22;231;48.120;11.576;2023-06-14T14:14:22;24.10;1.00
490;DHT22;231;48.120;11.576;2023-06-14T14:16:49;24.10;1.00
490;DHT22;231;48.120;11.576;2023-06-14T14:19:17;24.20;1.00
490;DHT22;231;48.120;11.576;2023-06-14T14:21:45;24.30;1.00
490;DHT22;231;48.120;11.576;2023-06-14T14:24:12;24.20;1.00
490;DHT22;231;48.120;11.576;2023-06-14T14:26:40;24.00;1.00
490;DHT22;231;48.120;11.576;2023-06-14T14:29:07;24.00;1.00
490;DHT22;231;48.120;11.576;2023-06-14T14:31:34;24.10;1.00
490;DHT22;231;48.120;11.576;2023-06-14T14:34:01;24.30;1.00
490;DHT22;231;48.120;11.576;2023-06-14T14:36:27;24.40;1.00
490;DHT22;231;48.120;11.576;2023-06-14T14:38:54;24.40;1.00
490;DHT22;231;48.120;11.576;2023-06-14T14:41:21;24.50;1.00
490;DHT22;231;48.120;11.576;2023-06-14T14:43:49;24.50;1.00
490;DHT22;231;48.120;11.576;2023-06-14T14:46:16;24.70;1.00
490;DHT22;231;48.120;11.576;2023-06-14T14:48:43;24.70;1.00
490;DHT22;231;48.120;11.576;2023-06-14T14:51:10;24.70;1.00
490;DHT22;231;48.120;11.576;2023-06-14T14:53:37;24.70;1.00
490;DHT22;231;48.120;11.576;2023-06-14T14:56:05;24.60;1.00
490;DHT22;231;48.120;11.576;2023-06-14T14:58:32;24.50;1.00
490;DHT22;231;48.120;11.576;2023-06-14T15:01:00;24.50;1.00
490;DHT22;231;48.120;11.576;2023-06-14T15:03:27;24.50;1.00
490;DHT22;231;48.120;11.576;2023-06-14T15:05:54;24.40;1.00
490;DHT22;231;48.120;11.576;2023-06-14T15:08:21;24.30;1.00
490;DHT22;231;48.120;11.576;2023-06-14T15:10:48;24.30;1.00
490;DHT22;231;48.120;11.576;2023-06-14T15:13:15;24.30;1.00
490;DHT22;231;48.120;11.576;2023-06-14T15:15:43;24.30;1.00
490;DHT22;231;48.120;11.576;2023-06-14T15:18:14;24.40;1.00
490;DHT22;231;48.120;11.576;2023-06-14T15:20:42;24.50;1.00
490;DHT22;231;48.120;11.576;2023-06-14T15:23:09;24.60;1.00
490;DHT22;231;48.120;11.576;2023-06-14T15:25:37;24.60;1.00
490;DHT22;231;48.120;11.576;2023-06-14T15:28:08;24.60;1.00
490;DHT22;231;48.120;11.576;2023-06-14T15:30:35;24.60;1.00
490;DHT22;231;48.120;11.576;2023-06-14T15:33:02;24.60;1.00
490;DHT22;231;48.120;11.576;2023-06-14T15:35:30;24.60;1.00
490;DHT22;231;48.120;11.576;2023-06-14T15:37:57;24.50;1.00
490;DHT22;231;48.120;11.576;2023-06-14T15:40:24;24.40;1.00
490;DHT22;231;48.120;11.576;2023-06-14T15:42:51;24.40;1.00
490;DHT22;231;48.120;11.576;2023-06-14T15:45:19;24.40;1.00
490;DHT22;231;48.120;11.576;2023-06-14T15:47:47;24.40;1.00
490;DHT22;231;48.120;11.576;2023-06-14T15:50:25;24.40;1.00
490;DHT22;231;48.120;11.576;2023-06-14T15:52:54;24.30;1.00
490;DHT22;231;48.120;11.576;2023-06-14T15:55:21;24.30;1.00
490;DHT22;231;48.120;11.576;2023-06-14T15:57:47;24.30;1.00
490;DHT22;231;48.120;11.576;2023-06-14T16:00:15;24.30;1.00
490;DHT22;231;48.120;11.576;2023-06-14T16:02:42;24.30;1.00
490;DHT22;231;48.120;11.576;2023-06-14T16:05:09;24.10;1.00
490;DHT22;231;48.120;11.576;2023-06-14T16:07:36;23.90;1.00
490;DHT22;231;48.120;11.576;2023-06-14T16:20:48;23.70;1.00
490;DHT22;231;48.120;11.576;2023-06-14T16:23:15;23.90;1.00
490;DHT22;231;48.120;11.576;2023-06-14T16:25:43;23.80;1.00
490;DHT22;231;48.120;11.576;2023-06-14T16:28:10;23.70;1.00
490;DHT22;231;48.120;11.576;2023-06-14T16:30:37;23.60;1.00
490;DHT22;231;48.120;11.576;2023-06-14T16:33:04;23.50;1.00
490;DHT22;231;48.120;11.576;2023-06-14T16:35:31;23.40;1.00
490;DHT22;231;48.120;11.576;2023-06-14T16:37:59;23.40;1.00
490;DHT22;231;48.120;11.576;2023-06-14T16:40:27;23.30;1.00
490;DHT22;231;48.120;11.576;2023-06-14T16:42:53;23.20;1.00
490;DHT22;231;48.120;11.576;2023-06-14T16:45:20;23.00;1.00
490;DHT22;231;48.120;11.576;2023-06-14T16:47:49;22.90;1.00
490;DHT22;231;48.120;11.576;2023-06-14T16:50:16;22.90;1.00
490;DHT22;231;48.120;11.576;2023-06-14T16:52:42;22.80;1.00
490;DHT22;231;48.120;11.576;2023-06-14T16:55:11;22.70;1.00
490;DHT22;231;48.120;11.576;2023-06-14T17:00:08;22.50;1.00
490;DHT22;231;48.120;11.576;2023-06-14T17:02:36;22.40;1.00
490;DHT22;231;48.120;11.576;2023-06-14T17:05:03;22.40;1.00
490;DHT22;231;48.120;11.576;2023-06-14T17:07:30;22.30;1.00
490;DHT22;231;48.120;11.576;2023-06-14T17:09:57;22.20;1.00
490;DHT22;231;48.120;11.576;2023-06-14T17:12:25;22.20;1.00
490;DHT22;231;48.120;11.576;2023-06-14T17:14:52;22.10;1.00
490;DHT22;231;48.120;11.576;2023-06-14T17:17:19;22.00;1.00
490;DHT22;231;48.120;11.576;2023-06-14T17:19:46;21.90;1.00
490;DHT22;231;48.120;11.576;2023-06-14T17:22:13;21.90;1.00
490;DHT22;231;48.120;11.576;2023-06-14T17:24:40;21.90;1.00
490;DHT22;231;48.120;11.576;2023-06-14T17:27:06;21.80;1.00
490;DHT22;231;48.120;11.576;2023-06-14T17:29:35;21.80;1.00
490;DHT22;231;48.120;11.576;2023-06-14T17:32:01;21.70;1.00
490;DHT22;231;48.120;11.576;2023-06-14T17:34:29;21.70;1.00
490;DHT22;231;48.120;11.576;2023-06-14T17:36:57;21.60;1.00
490;DHT22;231;48.120;11.576;2023-06-14T17:39:23;21.60;1.00
490;DHT22;231;48.120;11.576;2023-06-14T17:41:50;21.60;1.00
490;DHT22;231;48.120;11.576;2023-06-14T17:44:17;21.50;1.00
490;DHT22;231;48.120;11.576;2023-06-14T17:46:45;21.40;1.00